Darlington, South Carolina
Current Conditions -  °F | °C
As of 1:55 PM on Tuesday 27 Jan 2015 (Local Time) from KUDG Reporting Station
Clear Clear  
Wind Chill: 41°   Ceiling: Unl
Heat Index: 46°   Visibility: 10mi
Dew Point: 18°   Wind: 12mph
Humidity: 32%   Direction: 320°NW
Pressure: 29.84"   Gusts: 18mph
Location:  34.3°N, 79.87°W
Report Text: KUDG 271855Z AUTO 32010G16KT 10SM CLR 08/M08 A2984 RMK AO1
Loading
Personal Weather Stations






























Interactive Weather Map New forecast layout! Learn more

10-Day Weather Forecast

Advertisements
Track Severe Weather on mobile